Santa Elena, Texas
Current Conditions -  °F | °C
As of 2:35 PM on Monday 26 Jan 2015 (Local Time) from KEBG Reporting Station
Clear Clear  
Wind Chill: 77°   Ceiling: Unl
Heat Index: 77°   Visibility: 10mi
Dew Point: 23°   Wind: 0mph
Humidity: 13%   Direction: NA
Pressure: 30.21"   Gusts: NA
Location:  26.76°N, 98.49°W
Report Text: KEBG 262035Z AUTO 00000KT 10SM CLR 25/M05 A3021 RMK AO2 T02511052
Loading
Personal Weather Stations






























Interactive Weather Map New forecast layout! Learn more

10-Day Weather Forecast

Advertisements
Track Severe Weather on mobile